sensor_id;sensor_type;location;lat;lon;timestamp;P1;durP1;ratioP1;P2;durP2;ratioP2
13566;SDS011;6855;48.112;11.298;2022-07-23T00:00:11;8.20;;;6.90;;
13566;SDS011;6855;48.112;11.298;2022-07-23T00:02:38;8.13;;;6.40;;
13566;SDS011;6855;48.112;11.298;2022-07-23T00:05:06;9.80;;;7.47;;
13566;SDS011;6855;48.112;11.298;2022-07-23T00:07:33;8.27;;;7.20;;
13566;SDS011;6855;48.112;11.298;2022-07-23T00:10:02;7.90;;;6.83;;
13566;SDS011;6855;48.112;11.298;2022-07-23T00:12:29;8.50;;;6.83;;
13566;SDS011;6855;48.112;11.298;2022-07-23T00:14:56;6.60;;;6.00;;
13566;SDS011;6855;48.112;11.298;2022-07-23T00:17:24;8.77;;;7.87;;
13566;SDS011;6855;48.112;11.298;2022-07-23T00:19:51;11.23;;;7.57;;
13566;SDS011;6855;48.112;11.298;2022-07-23T00:22:19;8.40;;;7.50;;
13566;SDS011;6855;48.112;11.298;2022-07-23T00:24:46;7.37;;;6.57;;
13566;SDS011;6855;48.112;11.298;2022-07-23T00:27:15;8.13;;;7.07;;
13566;SDS011;6855;48.112;11.298;2022-07-23T00:29:42;7.50;;;6.70;;
13566;SDS011;6855;48.112;11.298;2022-07-23T00:32:09;11.10;;;6.87;;
13566;SDS011;6855;48.112;11.298;2022-07-23T00:34:36;7.73;;;7.00;;
13566;SDS011;6855;48.112;11.298;2022-07-23T00:37:03;11.07;;;6.73;;
13566;SDS011;6855;48.112;11.298;2022-07-23T00:39:30;8.50;;;6.87;;
13566;SDS011;6855;48.112;11.298;2022-07-23T00:41:58;8.07;;;7.10;;
13566;SDS011;6855;48.112;11.298;2022-07-23T00:44:27;8.40;;;6.63;;
13566;SDS011;6855;48.112;11.298;2022-07-23T00:46:56;7.90;;;6.60;;
13566;SDS011;6855;48.112;11.298;2022-07-23T00:49:25;9.57;;;7.30;;
13566;SDS011;6855;48.112;11.298;2022-07-23T00:51:52;10.90;;;7.00;;
13566;SDS011;6855;48.112;11.298;2022-07-23T00:54:21;7.93;;;7.13;;
13566;SDS011;6855;48.112;11.298;2022-07-23T00:56:49;8.30;;;7.50;;
13566;SDS011;6855;48.112;11.298;2022-07-23T00:59:16;8.80;;;7.80;;
13566;SDS011;6855;48.112;11.298;2022-07-23T01:01:44;11.47;;;7.33;;
13566;SDS011;6855;48.112;11.298;2022-07-23T01:04:14;10.13;;;7.80;;
13566;SDS011;6855;48.112;11.298;2022-07-23T01:06:41;8.23;;;6.77;;
13566;SDS011;6855;48.112;11.298;2022-07-23T01:09:09;15.30;;;6.97;;
13566;SDS011;6855;48.112;11.298;2022-07-23T01:11:36;12.90;;;6.10;;
13566;SDS011;6855;48.112;11.298;2022-07-23T01:14:08;10.47;;;5.13;;
13566;SDS011;6855;48.112;11.298;2022-07-23T01:16:35;9.73;;;6.53;;
13566;SDS011;6855;48.112;11.298;2022-07-23T01:19:04;8.30;;;5.73;;
13566;SDS011;6855;48.112;11.298;2022-07-23T01:21:32;9.40;;;5.90;;
13566;SDS011;6855;48.112;11.298;2022-07-23T01:24:02;13.13;;;6.10;;
13566;SDS011;6855;48.112;11.298;2022-07-23T01:26:30;14.97;;;7.67;;
13566;SDS011;6855;48.112;11.298;2022-07-23T01:28:57;18.47;;;8.07;;
13566;SDS011;6855;48.112;11.298;2022-07-23T01:31:24;12.00;;;8.00;;
13566;SDS011;6855;48.112;11.298;2022-07-23T01:33:51;10.70;;;7.60;;
13566;SDS011;6855;48.112;11.298;2022-07-23T01:36:19;8.67;;;7.73;;
13566;SDS011;6855;48.112;11.298;2022-07-23T01:38:46;10.47;;;8.37;;
13566;SDS011;6855;48.112;11.298;2022-07-23T01:41:15;10.17;;;7.63;;
13566;SDS011;6855;48.112;11.298;2022-07-23T01:43:42;11.87;;;7.10;;
13566;SDS011;6855;48.112;11.298;2022-07-23T01:46:09;16.33;;;7.80;;
13566;SDS011;6855;48.112;11.298;2022-07-23T01:48:37;14.47;;;8.13;;
13566;SDS011;6855;48.112;11.298;2022-07-23T01:51:04;10.37;;;6.97;;
13566;SDS011;6855;48.112;11.298;2022-07-23T01:53:31;8.10;;;6.83;;
13566;SDS011;6855;48.112;11.298;2022-07-23T01:55:59;14.73;;;7.67;;
13566;SDS011;6855;48.112;11.298;2022-07-23T01:58:28;11.33;;;7.20;;
13566;SDS011;6855;48.112;11.298;2022-07-23T02:00:55;13.30;;;7.80;;
13566;SDS011;6855;48.112;11.298;2022-07-23T02:03:22;8.80;;;5.80;;
13566;SDS011;6855;48.112;11.298;2022-07-23T02:05:50;9.03;;;5.17;;
13566;SDS011;6855;48.112;11.298;2022-07-23T02:08:17;9.77;;;4.40;;
13566;SDS011;6855;48.112;11.298;2022-07-23T02:10:44;8.80;;;4.50;;
13566;SDS011;6855;48.112;11.298;2022-07-23T02:13:12;5.40;;;4.47;;
13566;SDS011;6855;48.112;11.298;2022-07-23T02:15:41;5.57;;;3.60;;
13566;SDS011;6855;48.112;11.298;2022-07-23T02:18:08;4.97;;;3.83;;
13566;SDS011;6855;48.112;11.298;2022-07-23T02:20:35;7.53;;;4.70;;
13566;SDS011;6855;48.112;11.298;2022-07-23T02:23:04;5.43;;;4.00;;
13566;SDS011;6855;48.112;11.298;2022-07-23T02:25:31;8.20;;;4.27;;
13566;SDS011;6855;48.112;11.298;2022-07-23T02:27:59;9.53;;;4.17;;
13566;SDS011;6855;48.112;11.298;2022-07-23T02:30:26;8.07;;;4.90;;
13566;SDS011;6855;48.112;11.298;2022-07-23T02:32:54;5.00;;;3.80;;
13566;SDS011;6855;48.112;11.298;2022-07-23T02:35:22;9.97;;;3.60;;
13566;SDS011;6855;48.112;11.298;2022-07-23T02:37:49;7.93;;;4.33;;
13566;SDS011;6855;48.112;11.298;2022-07-23T02:40:16;6.50;;;4.73;;
13566;SDS011;6855;48.112;11.298;2022-07-23T02:42:44;4.00;;;3.70;;
13566;SDS011;6855;48.112;11.298;2022-07-23T02:45:11;8.43;;;4.53;;
13566;SDS011;6855;48.112;11.298;2022-07-23T02:47:38;5.30;;;3.83;;
13566;SDS011;6855;48.112;11.298;2022-07-23T02:50:07;9.63;;;3.83;;
13566;SDS011;6855;48.112;11.298;2022-07-23T02:52:34;7.10;;;4.00;;
13566;SDS011;6855;48.112;11.298;2022-07-23T02:55:02;5.30;;;2.90;;
13566;SDS011;6855;48.112;11.298;2022-07-23T02:57:29;9.63;;;3.63;;
13566;SDS011;6855;48.112;11.298;2022-07-23T02:59:56;4.90;;;4.20;;
13566;SDS011;6855;48.112;11.298;2022-07-23T03:02:23;4.37;;;3.53;;
13566;SDS011;6855;48.112;11.298;2022-07-23T03:04:51;5.53;;;3.67;;
13566;SDS011;6855;48.112;11.298;2022-07-23T03:07:19;4.07;;;3.53;;
13566;SDS011;6855;48.112;11.298;2022-07-23T03:09:46;5.87;;;4.07;;
13566;SDS011;6855;48.112;11.298;2022-07-23T03:12:14;5.97;;;4.03;;
13566;SDS011;6855;48.112;11.298;2022-07-23T03:14:41;4.47;;;4.07;;
13566;SDS011;6855;48.112;11.298;2022-07-23T03:17:08;8.73;;;4.70;;
13566;SDS011;6855;48.112;11.298;2022-07-23T03:19:36;6.93;;;4.70;;
13566;SDS011;6855;48.112;11.298;2022-07-23T03:22:03;5.43;;;4.57;;
13566;SDS011;6855;48.112;11.298;2022-07-23T03:24:32;4.93;;;4.40;;
13566;SDS011;6855;48.112;11.298;2022-07-23T03:27:17;5.53;;;4.27;;
13566;SDS011;6855;48.112;11.298;2022-07-23T03:29:44;6.93;;;4.03;;
13566;SDS011;6855;48.112;11.298;2022-07-23T03:32:11;4.80;;;3.73;;
13566;SDS011;6855;48.112;11.298;2022-07-23T03:34:39;7.40;;;4.00;;
13566;SDS011;6855;48.112;11.298;2022-07-23T03:37:06;5.83;;;4.30;;
13566;SDS011;6855;48.112;11.298;2022-07-23T03:39:34;5.27;;;4.77;;
13566;SDS011;6855;48.112;11.298;2022-07-23T03:42:02;8.10;;;4.47;;
13566;SDS011;6855;48.112;11.298;2022-07-23T03:44:29;6.03;;;4.03;;
13566;SDS011;6855;48.112;11.298;2022-07-23T03:46:56;5.80;;;3.93;;
13566;SDS011;6855;48.112;11.298;2022-07-23T03:49:23;7.20;;;4.93;;
13566;SDS011;6855;48.112;11.298;2022-07-23T03:51:50;4.67;;;4.17;;
13566;SDS011;6855;48.112;11.298;2022-07-23T03:54:18;8.00;;;4.37;;
13566;SDS011;6855;48.112;11.298;2022-07-23T03:56:46;4.50;;;3.80;;
13566;SDS011;6855;48.112;11.298;2022-07-23T03:59:13;5.67;;;4.20;;
13566;SDS011;6855;48.112;11.298;2022-07-23T04:01:41;5.23;;;4.53;;
13566;SDS011;6855;48.112;11.298;2022-07-23T04:04:08;7.97;;;4.07;;
13566;SDS011;6855;48.112;11.298;2022-07-23T04:06:35;6.60;;;5.07;;
13566;SDS011;6855;48.112;11.298;2022-07-23T04:09:02;4.70;;;4.00;;
13566;SDS011;6855;48.112;11.298;2022-07-23T04:11:29;5.30;;;4.80;;
13566;SDS011;6855;48.112;11.298;2022-07-23T04:13:58;4.70;;;4.27;;
13566;SDS011;6855;48.112;11.298;2022-07-23T04:16:25;4.40;;;4.00;;
13566;SDS011;6855;48.112;11.298;2022-07-23T04:18:53;6.80;;;4.57;;
13566;SDS011;6855;48.112;11.298;2022-07-23T04:21:20;4.50;;;4.10;;
13566;SDS011;6855;48.112;11.298;2022-07-23T04:23:48;5.60;;;4.60;;
13566;SDS011;6855;48.112;11.298;2022-07-23T04:26:15;4.67;;;4.20;;
13566;SDS011;6855;48.112;11.298;2022-07-23T04:28:42;7.17;;;4.90;;
13566;SDS011;6855;48.112;11.298;2022-07-23T04:31:11;5.87;;;4.87;;
13566;SDS011;6855;48.112;11.298;2022-07-23T04:33:38;6.30;;;4.67;;
13566;SDS011;6855;48.112;11.298;2022-07-23T04:36:05;4.93;;;4.13;;
13566;SDS011;6855;48.112;11.298;2022-07-23T04:38:32;7.13;;;4.60;;
13566;SDS011;6855;48.112;11.298;2022-07-23T04:40:59;5.30;;;4.80;;
13566;SDS011;6855;48.112;11.298;2022-07-23T04:43:27;4.77;;;4.27;;
13566;SDS011;6855;48.112;11.298;2022-07-23T04:45:54;6.90;;;4.47;;
13566;SDS011;6855;48.112;11.298;2022-07-23T04:48:23;8.10;;;4.30;;
13566;SDS011;6855;48.112;11.298;2022-07-23T04:50:50;5.40;;;4.90;;
13566;SDS011;6855;48.112;11.298;2022-07-23T04:53:17;5.37;;;4.33;;
13566;SDS011;6855;48.112;11.298;2022-07-23T04:55:44;7.80;;;4.97;;
13566;SDS011;6855;48.112;11.298;2022-07-23T04:58:12;5.90;;;4.30;;
13566;SDS011;6855;48.112;11.298;2022-07-23T05:00:39;8.50;;;5.00;;
13566;SDS011;6855;48.112;11.298;2022-07-23T05:03:06;6.47;;;4.90;;
13566;SDS011;6855;48.112;11.298;2022-07-23T05:05:35;5.35;;;4.85;;
13566;SDS011;6855;48.112;11.298;2022-07-23T05:08:02;5.50;;;4.50;;
13566;SDS011;6855;48.112;11.298;2022-07-23T05:10:29;5.40;;;4.47;;
13566;SDS011;6855;48.112;11.298;2022-07-23T05:12:57;5.67;;;5.03;;
13566;SDS011;6855;48.112;11.298;2022-07-23T05:15:24;5.90;;;4.53;;
13566;SDS011;6855;48.112;11.298;2022-07-23T05:17:51;5.40;;;4.90;;
13566;SDS011;6855;48.112;11.298;2022-07-23T05:20:18;5.03;;;4.53;;
13566;SDS011;6855;48.112;11.298;2022-07-23T05:22:47;6.30;;;4.93;;
13566;SDS011;6855;48.112;11.298;2022-07-23T05:25:14;5.10;;;4.60;;
13566;SDS011;6855;48.112;11.298;2022-07-23T05:27:41;4.67;;;4.27;;
13566;SDS011;6855;48.112;11.298;2022-07-23T05:30:09;5.83;;;5.10;;
13566;SDS011;6855;48.112;11.298;2022-07-23T05:32:36;5.43;;;4.93;;
13566;SDS011;6855;48.112;11.298;2022-07-23T05:35:04;6.20;;;4.80;;
13566;SDS011;6855;48.112;11.298;2022-07-23T05:37:31;6.60;;;5.63;;
13566;SDS011;6855;48.112;11.298;2022-07-23T05:40:01;6.50;;;5.10;;
13566;SDS011;6855;48.112;11.298;2022-07-23T05:42:29;5.30;;;4.80;;
13566;SDS011;6855;48.112;11.298;2022-07-23T05:44:56;6.07;;;4.87;;
13566;SDS011;6855;48.112;11.298;2022-07-23T05:47:23;4.93;;;4.47;;
13566;SDS011;6855;48.112;11.298;2022-07-23T05:49:50;7.57;;;4.53;;
13566;SDS011;6855;48.112;11.298;2022-07-23T05:52:18;6.30;;;5.50;;
13566;SDS011;6855;48.112;11.298;2022-07-23T05:54:45;5.83;;;5.00;;
13566;SDS011;6855;48.112;11.298;2022-07-23T05:57:14;14.00;;;4.73;;
13566;SDS011;6855;48.112;11.298;2022-07-23T05:59:41;6.87;;;5.10;;
13566;SDS011;6855;48.112;11.298;2022-07-23T06:02:08;7.20;;;4.77;;
13566;SDS011;6855;48.112;11.298;2022-07-23T06:04:35;5.57;;;4.90;;
13566;SDS011;6855;48.112;11.298;2022-07-23T06:07:02;4.77;;;4.10;;
13566;SDS011;6855;48.112;11.298;2022-07-23T06:09:30;7.43;;;4.63;;
13566;SDS011;6855;48.112;11.298;2022-07-23T06:11:57;9.20;;;5.00;;
13566;SDS011;6855;48.112;11.298;2022-07-23T06:14:25;6.10;;;5.20;;
13566;SDS011;6855;48.112;11.298;2022-07-23T06:16:53;6.53;;;5.43;;
13566;SDS011;6855;48.112;11.298;2022-07-23T06:19:20;6.90;;;4.83;;
13566;SDS011;6855;48.112;11.298;2022-07-23T06:21:47;6.53;;;5.50;;
13566;SDS011;6855;48.112;11.298;2022-07-23T06:24:17;10.33;;;5.47;;
13566;SDS011;6855;48.112;11.298;2022-07-23T06:26:44;6.07;;;5.40;;
13566;SDS011;6855;48.112;11.298;2022-07-23T06:29:11;6.20;;;5.60;;
13566;SDS011;6855;48.112;11.298;2022-07-23T06:31:40;7.77;;;5.33;;
13566;SDS011;6855;48.112;11.298;2022-07-23T06:34:07;7.60;;;5.27;;
13566;SDS011;6855;48.112;11.298;2022-07-23T06:36:35;6.10;;;5.50;;
13566;SDS011;6855;48.112;11.298;2022-07-23T06:39:07;6.00;;;4.97;;
13566;SDS011;6855;48.112;11.298;2022-07-23T06:41:34;6.27;;;5.60;;
13566;SDS011;6855;48.112;11.298;2022-07-23T06:44:02;5.53;;;4.40;;
13566;SDS011;6855;48.112;11.298;2022-07-23T06:46:29;5.60;;;5.10;;
13566;SDS011;6855;48.112;11.298;2022-07-23T06:48:58;7.07;;;5.33;;
13566;SDS011;6855;48.112;11.298;2022-07-23T06:51:25;9.70;;;5.27;;
13566;SDS011;6855;48.112;11.298;2022-07-23T06:53:52;6.30;;;5.70;;
13566;SDS011;6855;48.112;11.298;2022-07-23T06:56:19;5.70;;;5.20;;
13566;SDS011;6855;48.112;11.298;2022-07-23T06:58:47;7.80;;;5.90;;
13566;SDS011;6855;48.112;11.298;2022-07-23T07:01:19;10.03;;;6.43;;
13566;SDS011;6855;48.112;11.298;2022-07-23T07:03:47;7.27;;;5.80;;
13566;SDS011;6855;48.112;11.298;2022-07-23T07:06:16;6.90;;;5.57;;
13566;SDS011;6855;48.112;11.298;2022-07-23T07:08:43;8.27;;;6.47;;
13566;SDS011;6855;48.112;11.298;2022-07-23T07:11:10;6.37;;;5.50;;
13566;SDS011;6855;48.112;11.298;2022-07-23T07:13:38;7.37;;;5.70;;
13566;SDS011;6855;48.112;11.298;2022-07-23T07:16:05;8.13;;;5.80;;
13566;SDS011;6855;48.112;11.298;2022-07-23T07:18:32;6.47;;;5.87;;
13566;SDS011;6855;48.112;11.298;2022-07-23T07:21:00;7.97;;;5.67;;
13566;SDS011;6855;48.112;11.298;2022-07-23T07:23:28;8.33;;;5.47;;
13566;SDS011;6855;48.112;11.298;2022-07-23T07:25:55;7.00;;;5.60;;
13566;SDS011;6855;48.112;11.298;2022-07-23T07:28:23;8.20;;;6.17;;
13566;SDS011;6855;48.112;11.298;2022-07-23T07:30:50;6.70;;;6.10;;
13566;SDS011;6855;48.112;11.298;2022-07-23T07:33:17;7.03;;;5.70;;
13566;SDS011;6855;48.112;11.298;2022-07-23T07:35:46;9.13;;;5.70;;
13566;SDS011;6855;48.112;11.298;2022-07-23T07:38:13;7.80;;;6.47;;
13566;SDS011;6855;48.112;11.298;2022-07-23T07:40:42;7.97;;;6.47;;
13566;SDS011;6855;48.112;11.298;2022-07-23T07:43:09;7.87;;;6.30;;
13566;SDS011;6855;48.112;11.298;2022-07-23T07:45:36;7.90;;;6.20;;
13566;SDS011;6855;48.112;11.298;2022-07-23T07:48:03;7.00;;;6.27;;
13566;SDS011;6855;48.112;11.298;2022-07-23T07:50:31;7.47;;;5.73;;
13566;SDS011;6855;48.112;11.298;2022-07-23T07:52:58;7.00;;;6.30;;
13566;SDS011;6855;48.112;11.298;2022-07-23T07:55:25;7.90;;;6.10;;
13566;SDS011;6855;48.112;11.298;2022-07-23T07:57:55;7.07;;;6.00;;
13566;SDS011;6855;48.112;11.298;2022-07-23T08:00:22;6.93;;;6.03;;
13566;SDS011;6855;48.112;11.298;2022-07-23T08:02:50;7.63;;;5.60;;
13566;SDS011;6855;48.112;11.298;2022-07-23T08:05:18;7.50;;;6.00;;
13566;SDS011;6855;48.112;11.298;2022-07-23T08:07:46;6.00;;;5.40;;
13566;SDS011;6855;48.112;11.298;2022-07-23T08:10:14;8.43;;;6.00;;
13566;SDS011;6855;48.112;11.298;2022-07-23T08:12:41;6.33;;;5.73;;
13566;SDS011;6855;48.112;11.298;2022-07-23T08:15:11;11.20;;;5.93;;
13566;SDS011;6855;48.112;11.298;2022-07-23T08:17:38;6.33;;;5.67;;
13566;SDS011;6855;48.112;11.298;2022-07-23T08:20:06;7.13;;;5.50;;
13566;SDS011;6855;48.112;11.298;2022-07-23T08:22:46;6.27;;;5.67;;
13566;SDS011;6855;48.112;11.298;2022-07-23T08:25:14;6.30;;;5.70;;
13566;SDS011;6855;48.112;11.298;2022-07-23T08:27:41;6.50;;;5.30;;
13566;SDS011;6855;48.112;11.298;2022-07-23T08:30:10;7.27;;;5.90;;
13566;SDS011;6855;48.112;11.298;2022-07-23T08:32:50;7.03;;;5.80;;
13566;SDS011;6855;48.112;11.298;2022-07-23T08:35:20;7.00;;;5.27;;
13566;SDS011;6855;48.112;11.298;2022-07-23T08:37:48;5.63;;;4.70;;
13566;SDS011;6855;48.112;11.298;2022-07-23T08:40:15;8.07;;;5.50;;
13566;SDS011;6855;48.112;11.298;2022-07-23T08:42:42;5.50;;;5.00;;
13566;SDS011;6855;48.112;11.298;2022-07-23T08:45:11;5.30;;;4.80;;
13566;SDS011;6855;48.112;11.298;2022-07-23T08:47:39;5.23;;;4.70;;
13566;SDS011;6855;48.112;11.298;2022-07-23T08:50:07;5.40;;;4.90;;
13566;SDS011;6855;48.112;11.298;2022-07-23T08:52:35;8.63;;;4.80;;
13566;SDS011;6855;48.112;11.298;2022-07-23T08:55:03;5.67;;;5.07;;
13566;SDS011;6855;48.112;11.298;2022-07-23T08:57:30;4.97;;;4.53;;
13566;SDS011;6855;48.112;11.298;2022-07-23T08:59:57;5.10;;;4.60;;
13566;SDS011;6855;48.112;11.298;2022-07-23T09:02:26;5.77;;;4.60;;
13566;SDS011;6855;48.112;11.298;2022-07-23T09:04:53;8.77;;;4.50;;
13566;SDS011;6855;48.112;11.298;2022-07-23T09:07:21;5.90;;;5.03;;
13566;SDS011;6855;48.112;11.298;2022-07-23T09:09:50;5.10;;;4.57;;
13566;SDS011;6855;48.112;11.298;2022-07-23T09:12:31;4.80;;;4.20;;
13566;SDS011;6855;48.112;11.298;2022-07-23T09:14:59;5.10;;;4.63;;
13566;SDS011;6855;48.112;11.298;2022-07-23T09:17:31;5.03;;;4.53;;
13566;SDS011;6855;48.112;11.298;2022-07-23T09:20:09;5.20;;;4.70;;
13566;SDS011;6855;48.112;11.298;2022-07-23T09:22:37;5.60;;;4.80;;
13566;SDS011;6855;48.112;11.298;2022-07-23T09:25:09;5.40;;;4.67;;
13566;SDS011;6855;48.112;11.298;2022-07-23T09:30:28;5.50;;;5.00;;
13566;SDS011;6855;48.112;11.298;2022-07-23T09:33:07;6.97;;;4.67;;
13566;SDS011;6855;48.112;11.298;2022-07-23T09:35:48;4.50;;;4.10;;
13566;SDS011;6855;48.112;11.298;2022-07-23T09:38:15;5.27;;;4.80;;
13566;SDS011;6855;48.112;11.298;2022-07-23T09:40:44;5.40;;;4.90;;
13566;SDS011;6855;48.112;11.298;2022-07-23T09:43:11;11.00;;;4.97;;
13566;SDS011;6855;48.112;11.298;2022-07-23T09:45:39;5.00;;;4.50;;
13566;SDS011;6855;48.112;11.298;2022-07-23T09:48:14;5.20;;;4.30;;
13566;SDS011;6855;48.112;11.298;2022-07-23T09:50:42;4.80;;;4.40;;
13566;SDS011;6855;48.112;11.298;2022-07-23T09:53:10;5.13;;;4.17;;
13566;SDS011;6855;48.112;11.298;2022-07-23T09:55:37;4.63;;;4.23;;
13566;SDS011;6855;48.112;11.298;2022-07-23T09:58:05;4.30;;;3.90;;
13566;SDS011;6855;48.112;11.298;2022-07-23T10:00:36;4.20;;;3.90;;
13566;SDS011;6855;48.112;11.298;2022-07-23T10:03:03;4.13;;;3.70;;
13566;SDS011;6855;48.112;11.298;2022-07-23T10:05:34;6.27;;;4.10;;
13566;SDS011;6855;48.112;11.298;2022-07-23T10:08:02;4.23;;;3.80;;
13566;SDS011;6855;48.112;11.298;2022-07-23T10:10:29;5.40;;;4.03;;
13566;SDS011;6855;48.112;11.298;2022-07-23T10:12:57;5.80;;;4.13;;
13566;SDS011;6855;48.112;11.298;2022-07-23T10:15:56;5.60;;;3.90;;
13566;SDS011;6855;48.112;11.298;2022-07-23T10:18:24;5.00;;;3.70;;
13566;SDS011;6855;48.112;11.298;2022-07-23T10:20:52;4.10;;;3.80;;
13566;SDS011;6855;48.112;11.298;2022-07-23T10:23:22;4.60;;;3.70;;
13566;SDS011;6855;48.112;11.298;2022-07-23T10:25:54;4.47;;;4.07;;
13566;SDS011;6855;48.112;11.298;2022-07-23T10:28:43;4.27;;;3.87;;
13566;SDS011;6855;48.112;11.298;2022-07-23T10:31:14;4.20;;;3.80;;
13566;SDS011;6855;48.112;11.298;2022-07-23T10:33:51;6.13;;;3.80;;
13566;SDS011;6855;48.112;11.298;2022-07-23T10:36:23;4.60;;;4.13;;
13566;SDS011;6855;48.112;11.298;2022-07-23T10:39:03;5.57;;;3.60;;
13566;SDS011;6855;48.112;11.298;2022-07-23T10:41:32;5.07;;;4.57;;
13566;SDS011;6855;48.112;11.298;2022-07-23T10:44:06;6.30;;;4.80;;
13566;SDS011;6855;48.112;11.298;2022-07-23T10:46:33;4.87;;;4.47;;
13566;SDS011;6855;48.112;11.298;2022-07-23T10:49:24;4.57;;;4.10;;
13566;SDS011;6855;48.112;11.298;2022-07-23T10:54:39;8.20;;;4.77;;
13566;SDS011;6855;48.112;11.298;2022-07-23T10:57:06;5.23;;;4.13;;
13566;SDS011;6855;48.112;11.298;2022-07-23T11:02:20;6.27;;;4.60;;
13566;SDS011;6855;48.112;11.298;2022-07-23T11:04:48;4.67;;;4.10;;
13566;SDS011;6855;48.112;11.298;2022-07-23T11:07:15;4.80;;;4.23;;
13566;SDS011;6855;48.112;11.298;2022-07-23T11:09:44;5.57;;;4.50;;
13566;SDS011;6855;48.112;11.298;2022-07-23T11:12:31;6.47;;;5.10;;
13566;SDS011;6855;48.112;11.298;2022-07-23T11:15:00;4.70;;;4.30;;
13566;SDS011;6855;48.112;11.298;2022-07-23T11:17:28;6.50;;;5.00;;
13566;SDS011;6855;48.112;11.298;2022-07-23T11:20:16;6.10;;;5.43;;
13566;SDS011;6855;48.112;11.298;2022-07-23T11:22:47;7.30;;;5.17;;
13566;SDS011;6855;48.112;11.298;2022-07-23T11:25:28;5.90;;;5.20;;
13566;SDS011;6855;48.112;11.298;2022-07-23T11:28:08;6.57;;;5.63;;
13566;SDS011;6855;48.112;11.298;2022-07-23T11:30:39;5.60;;;5.00;;
13566;SDS011;6855;48.112;11.298;2022-07-23T11:36:01;10.10;;;5.80;;
13566;SDS011;6855;48.112;11.298;2022-07-23T11:38:30;6.20;;;5.27;;
13566;SDS011;6855;48.112;11.298;2022-07-23T11:40:59;6.50;;;5.57;;
13566;SDS011;6855;48.112;11.298;2022-07-23T11:43:26;5.30;;;4.80;;
13566;SDS011;6855;48.112;11.298;2022-07-23T11:45:54;6.40;;;5.40;;
13566;SDS011;6855;48.112;11.298;2022-07-23T11:48:24;5.77;;;4.97;;
13566;SDS011;6855;48.112;11.298;2022-07-23T11:50:52;8.40;;;5.77;;
13566;SDS011;6855;48.112;11.298;2022-07-23T11:53:22;6.73;;;5.33;;
13566;SDS011;6855;48.112;11.298;2022-07-23T11:55:50;7.00;;;5.17;;
13566;SDS011;6855;48.112;11.298;2022-07-23T11:58:19;6.83;;;5.40;;
13566;SDS011;6855;48.112;11.298;2022-07-23T12:00:46;6.63;;;5.40;;
13566;SDS011;6855;48.112;11.298;2022-07-23T12:03:15;6.83;;;5.53;;
13566;SDS011;6855;48.112;11.298;2022-07-23T12:05:43;6.57;;;4.37;;
13566;SDS011;6855;48.112;11.298;2022-07-23T12:08:10;5.53;;;5.03;;
13566;SDS011;6855;48.112;11.298;2022-07-23T12:10:38;5.83;;;4.90;;
13566;SDS011;6855;48.112;11.298;2022-07-23T12:13:08;6.20;;;5.57;;
13566;SDS011;6855;48.112;11.298;2022-07-23T12:15:38;6.03;;;5.23;;
13566;SDS011;6855;48.112;11.298;2022-07-23T12:18:07;6.33;;;5.20;;
13566;SDS011;6855;48.112;11.298;2022-07-23T12:20:35;6.03;;;5.43;;
13566;SDS011;6855;48.112;11.298;2022-07-23T12:23:03;5.43;;;4.90;;
13566;SDS011;6855;48.112;11.298;2022-07-23T12:25:32;6.23;;;5.63;;
13566;SDS011;6855;48.112;11.298;2022-07-23T12:28:03;5.30;;;4.80;;
13566;SDS011;6855;48.112;11.298;2022-07-23T12:30:32;7.60;;;5.60;;
13566;SDS011;6855;48.112;11.298;2022-07-23T12:33:01;6.57;;;5.07;;
13566;SDS011;6855;48.112;11.298;2022-07-23T12:35:32;6.57;;;4.70;;
13566;SDS011;6855;48.112;11.298;2022-07-23T12:38:00;6.80;;;6.10;;
13566;SDS011;6855;48.112;11.298;2022-07-23T12:40:29;6.10;;;5.47;;
13566;SDS011;6855;48.112;11.298;2022-07-23T12:42:57;6.97;;;4.90;;
13566;SDS011;6855;48.112;11.298;2022-07-23T12:45:24;8.83;;;5.70;;
13566;SDS011;6855;48.112;11.298;2022-07-23T12:47:53;5.93;;;5.00;;
13566;SDS011;6855;48.112;11.298;2022-07-23T12:50:32;6.13;;;4.83;;
13566;SDS011;6855;48.112;11.298;2022-07-23T12:53:03;8.47;;;5.70;;
13566;SDS011;6855;48.112;11.298;2022-07-23T12:55:31;5.80;;;5.20;;
13566;SDS011;6855;48.112;11.298;2022-07-23T12:58:05;5.90;;;5.40;;
13566;SDS011;6855;48.112;11.298;2022-07-23T13:00:48;5.93;;;5.00;;
13566;SDS011;6855;48.112;11.298;2022-07-23T13:03:22;5.60;;;5.10;;
13566;SDS011;6855;48.112;11.298;2022-07-23T13:05:51;6.10;;;5.20;;
13566;SDS011;6855;48.112;11.298;2022-07-23T13:08:18;7.00;;;5.70;;
13566;SDS011;6855;48.112;11.298;2022-07-23T13:10:45;6.70;;;4.87;;
13566;SDS011;6855;48.112;11.298;2022-07-23T13:13:13;5.63;;;5.13;;
13566;SDS011;6855;48.112;11.298;2022-07-23T13:15:41;5.87;;;5.27;;
13566;SDS011;6855;48.112;11.298;2022-07-23T13:18:08;7.63;;;5.50;;
13566;SDS011;6855;48.112;11.298;2022-07-23T13:20:35;5.90;;;5.30;;
13566;SDS011;6855;48.112;11.298;2022-07-23T13:23:05;6.07;;;5.47;;
13566;SDS011;6855;48.112;11.298;2022-07-23T13:25:32;9.63;;;5.43;;
13566;SDS011;6855;48.112;11.298;2022-07-23T13:27:59;6.03;;;5.07;;
13566;SDS011;6855;48.112;11.298;2022-07-23T13:30:26;5.40;;;4.90;;
13566;SDS011;6855;48.112;11.298;2022-07-23T13:32:53;5.73;;;5.23;;
13566;SDS011;6855;48.112;11.298;2022-07-23T13:35:21;7.83;;;5.60;;
13566;SDS011;6855;48.112;11.298;2022-07-23T13:37:48;7.07;;;5.27;;
13566;SDS011;6855;48.112;11.298;2022-07-23T13:40:17;6.63;;;6.00;;
13566;SDS011;6855;48.112;11.298;2022-07-23T13:42:44;7.97;;;4.93;;
13566;SDS011;6855;48.112;11.298;2022-07-23T13:45:11;7.53;;;5.03;;
13566;SDS011;6855;48.112;11.298;2022-07-23T13:47:38;7.13;;;6.00;;
13566;SDS011;6855;48.112;11.298;2022-07-23T13:50:05;6.30;;;5.20;;
13566;SDS011;6855;48.112;11.298;2022-07-23T13:52:33;6.80;;;5.67;;
13566;SDS011;6855;48.112;11.298;2022-07-23T13:55:00;7.00;;;6.17;;
13566;SDS011;6855;48.112;11.298;2022-07-23T13:57:30;6.03;;;5.53;;
13566;SDS011;6855;48.112;11.298;2022-07-23T13:59:57;5.67;;;5.13;;
13566;SDS011;6855;48.112;11.298;2022-07-23T14:02:25;6.20;;;5.67;;
13566;SDS011;6855;48.112;11.298;2022-07-23T14:04:52;5.80;;;5.20;;
13566;SDS011;6855;48.112;11.298;2022-07-23T14:07:19;5.53;;;5.00;;
13566;SDS011;6855;48.112;11.298;2022-07-23T14:09:47;6.33;;;5.43;;
13566;SDS011;6855;48.112;11.298;2022-07-23T14:12:14;5.67;;;5.13;;
13566;SDS011;6855;48.112;11.298;2022-07-23T14:14:43;5.23;;;4.73;;
13566;SDS011;6855;48.112;11.298;2022-07-23T14:17:10;6.40;;;5.50;;
13566;SDS011;6855;48.112;11.298;2022-07-23T14:19:37;6.87;;;5.20;;
13566;SDS011;6855;48.112;11.298;2022-07-23T14:22:04;6.38;;;5.22;;
13566;SDS011;6855;48.112;11.298;2022-07-23T14:24:32;6.90;;;5.60;;
13566;SDS011;6855;48.112;11.298;2022-07-23T14:26:59;5.97;;;5.47;;
13566;SDS011;6855;48.112;11.298;2022-07-23T14:29:28;6.53;;;5.80;;
13566;SDS011;6855;48.112;11.298;2022-07-23T14:31:56;11.63;;;5.97;;
13566;SDS011;6855;48.112;11.298;2022-07-23T14:34:23;6.47;;;5.70;;
13566;SDS011;6855;48.112;11.298;2022-07-23T14:36:51;7.10;;;6.10;;
13566;SDS011;6855;48.112;11.298;2022-07-23T14:39:18;6.47;;;5.40;;
13566;SDS011;6855;48.112;11.298;2022-07-23T14:41:45;6.27;;;5.53;;
13566;SDS011;6855;48.112;11.298;2022-07-23T14:44:13;7.70;;;5.97;;
13566;SDS011;6855;48.112;11.298;2022-07-23T14:46:40;8.00;;;6.00;;
13566;SDS011;6855;48.112;11.298;2022-07-23T14:49:08;6.43;;;5.73;;
13566;SDS011;6855;48.112;11.298;2022-07-23T14:51:36;8.60;;;5.57;;
13566;SDS011;6855;48.112;11.298;2022-07-23T14:54:03;6.60;;;6.00;;
13566;SDS011;6855;48.112;11.298;2022-07-23T14:56:30;8.27;;;6.20;;
13566;SDS011;6855;48.112;11.298;2022-07-23T14:58:58;9.83;;;8.40;;
13566;SDS011;6855;48.112;11.298;2022-07-23T15:01:25;7.37;;;5.80;;
13566;SDS011;6855;48.112;11.298;2022-07-23T15:03:53;6.63;;;5.90;;